Hauptseite
METAR-TAF:

METAR-TAF

Flughäfen :

Leipzig-Altenburg Airport

Altenburg, Deutschland

Breite: 50-58N, Länge: 012-30E, Höhe: 195 m

Beobachtung

Neuester Wetterbericht von vor 31 Minuten, um 07:20 UTC
Temperatur 21°C
Luftfeuchtigkeit 53%
Luftdruck 1025 hPa
Sichtweite 10 km oder mehr
keine Wolken unter 1500 m und keine Kumulonimbus oder Gewitterwolken

METAR: EDAC 110720Z /////KT ///V/// CAVOK 21/11 Q1025

Zeit: 09:51 (07:51 UTC)

Prognose

Neuester Wetterbericht von vor 14 Stunden und 51 Minuten, um 17:00 UTC
Gültige Prognose vom 10 um 18 UTC bis 11 um 03 UTC
Wind 5 kt aus Ost/Nordost
Sichtweite 10 km oder mehr
keine Wolken unter 1500 m und keine Kumulonimbus oder Gewitterwolken
Übergehend zu
vom 10 um 18 UTC bis 10 um 20 UTC
Wind 3 kt aus unterschiedlichen Richtungen

TAF: EDAC 101700Z 1018/1103 06005KT CAVOK BECMG 1018/1020 VRB03KT

Wetterbeobachtungen und Prognosen von mehr als 4000 Flughäfen (METAR und TAF Bericht).

Die verfügbaren Stationen werden durch gelbe und rote Markierungen auf der Karte dargestellt.

Führen Sie die Maus auf sie, um den Namen der Station zu sehen.

Darauf klicken, um die Beobachtung von Wetterbeobachtungen und Prognosen zu sehen.

Um die Karte zu ändern : klicken Sie auf den grünen Tasten mit einem schwarzen Kreuz Zum Vergrößern, auf den grünen Button mit einem Gedankenstrich zu verkleinern, oder auf die grünen Pfeile für benachbarte Karten.


METAR-TAF: